sensor_id;sensor_type;location;lat;lon;timestamp;pressure;altitude;pressure_sealevel;temperature;humidity
16355;BME280;8287;51.644;8.494;2024-03-08T00:02:17;100804.38;;;3.84;90.69
16355;BME280;8287;51.644;8.494;2024-03-08T00:04:44;100801.75;;;3.84;90.69
16355;BME280;8287;51.644;8.494;2024-03-08T00:07:11;100798.59;;;3.82;90.69
16355;BME280;8287;51.644;8.494;2024-03-08T00:09:38;100799.06;;;3.79;91.21
16355;BME280;8287;51.644;8.494;2024-03-08T00:12:07;100795.59;;;3.73;91.80
16355;BME280;8287;51.644;8.494;2024-03-08T00:14:34;100802.66;;;3.73;92.04
16355;BME280;8287;51.644;8.494;2024-03-08T00:17:02;100792.66;;;3.65;91.56
16355;BME280;8287;51.644;8.494;2024-03-08T00:19:28;100790.50;;;3.62;91.71
16355;BME280;8287;51.644;8.494;2024-03-08T00:21:55;100783.63;;;3.56;91.96
16355;BME280;8287;51.644;8.494;2024-03-08T00:24:22;100783.06;;;3.49;92.53
16355;BME280;8287;51.644;8.494;2024-03-08T00:26:50;100778.91;;;3.53;92.64
16355;BME280;8287;51.644;8.494;2024-03-08T00:29:18;100774.59;;;3.42;92.88
16355;BME280;8287;51.644;8.494;2024-03-08T00:31:44;100780.88;;;3.41;93.27
16355;BME280;8287;51.644;8.494;2024-03-08T00:34:11;100783.53;;;3.46;93.46
16355;BME280;8287;51.644;8.494;2024-03-08T00:36:37;100784.03;;;3.43;93.50
16355;BME280;8287;51.644;8.494;2024-03-08T00:39:04;100770.94;;;3.43;93.76
16355;BME280;8287;51.644;8.494;2024-03-08T00:41:31;100777.22;;;3.42;93.27
16355;BME280;8287;51.644;8.494;2024-03-08T00:43:58;100768.53;;;3.36;93.86
16355;BME280;8287;51.644;8.494;2024-03-08T00:46:27;100771.91;;;3.37;93.76
16355;BME280;8287;51.644;8.494;2024-03-08T00:48:55;100773.50;;;3.38;93.16
16355;BME280;8287;51.644;8.494;2024-03-08T00:51:21;100765.09;;;3.36;93.22
16355;BME280;8287;51.644;8.494;2024-03-08T00:53:48;100758.81;;;3.37;92.94
16355;BME280;8287;51.644;8.494;2024-03-08T00:56:14;100766.13;;;3.35;93.15
16355;BME280;8287;51.644;8.494;2024-03-08T00:58:40;100755.66;;;3.35;92.47
16355;BME280;8287;51.644;8.494;2024-03-08T01:01:08;100756.19;;;3.37;92.67
16355;BME280;8287;51.644;8.494;2024-03-08T01:03:36;100755.16;;;3.38;92.24
16355;BME280;8287;51.644;8.494;2024-03-08T01:06:03;100757.09;;;3.47;92.03
16355;BME280;8287;51.644;8.494;2024-03-08T01:08:30;100747.13;;;3.44;91.95
16355;BME280;8287;51.644;8.494;2024-03-08T01:10:56;100747.13;;;3.44;92.08
16355;BME280;8287;51.644;8.494;2024-03-08T01:13:23;100745.34;;;3.50;92.09
16355;BME280;8287;51.644;8.494;2024-03-08T01:15:49;100751.63;;;3.49;91.52
16355;BME280;8287;51.644;8.494;2024-03-08T01:18:16;100736.53;;;3.61;91.14
16355;BME280;8287;51.644;8.494;2024-03-08T01:20:43;100743.88;;;3.59;90.95
16355;BME280;8287;51.644;8.494;2024-03-08T01:23:10;100726.94;;;3.45;91.72
16355;BME280;8287;51.644;8.494;2024-03-08T01:25:37;100732.44;;;3.43;91.63
16355;BME280;8287;51.644;8.494;2024-03-08T01:28:04;100726.72;;;3.46;91.86
16355;BME280;8287;51.644;8.494;2024-03-08T01:30:31;100715.50;;;3.51;91.39
16355;BME280;8287;51.644;8.494;2024-03-08T01:33:00;100716.78;;;3.48;91.26
16355;BME280;8287;51.644;8.494;2024-03-08T01:35:26;100717.00;;;3.47;91.79
16355;BME280;8287;51.644;8.494;2024-03-08T01:37:54;100712.66;;;3.57;91.47
16355;BME280;8287;51.644;8.494;2024-03-08T01:40:21;100706.16;;;3.60;91.16
16355;BME280;8287;51.644;8.494;2024-03-08T01:42:47;100704.22;;;3.50;91.23
16355;BME280;8287;51.644;8.494;2024-03-08T01:45:14;100701.94;;;3.59;90.65
16355;BME280;8287;51.644;8.494;2024-03-08T01:47:41;100701.41;;;3.57;90.57
16355;BME280;8287;51.644;8.494;2024-03-08T01:50:08;100698.53;;;3.58;90.48
16355;BME280;8287;51.644;8.494;2024-03-08T01:52:36;100695.66;;;3.60;90.67
16355;BME280;8287;51.644;8.494;2024-03-08T01:55:05;100686.53;;;3.67;90.74
16355;BME280;8287;51.644;8.494;2024-03-08T01:57:33;100689.91;;;3.58;90.43
16355;BME280;8287;51.644;8.494;2024-03-08T02:00:00;100693.00;;;3.55;90.45
16355;BME280;8287;51.644;8.494;2024-03-08T02:02:30;100695.59;;;3.55;90.85
16355;BME280;8287;51.644;8.494;2024-03-08T02:05:00;100686.91;;;3.49;90.65
16355;BME280;8287;51.644;8.494;2024-03-08T02:07:27;100678.47;;;3.42;91.06
16355;BME280;8287;51.644;8.494;2024-03-08T02:09:53;100679.50;;;3.36;91.43
16355;BME280;8287;51.644;8.494;2024-03-08T02:12:21;100676.00;;;3.31;91.84
16355;BME280;8287;51.644;8.494;2024-03-08T02:14:48;100673.88;;;3.23;91.85
16355;BME280;8287;51.644;8.494;2024-03-08T02:17:14;100672.25;;;3.22;92.12
16355;BME280;8287;51.644;8.494;2024-03-08T02:19:41;100666.94;;;3.12;92.55
16355;BME280;8287;51.644;8.494;2024-03-08T02:22:08;100667.47;;;3.14;92.77
16355;BME280;8287;51.644;8.494;2024-03-08T02:24:35;100671.13;;;3.13;92.61
16355;BME280;8287;51.644;8.494;2024-03-08T02:27:02;100657.25;;;3.13;92.13
16355;BME280;8287;51.644;8.494;2024-03-08T02:29:28;100664.59;;;3.15;92.12
16355;BME280;8287;51.644;8.494;2024-03-08T02:31:55;100650.25;;;3.18;91.64
16355;BME280;8287;51.644;8.494;2024-03-08T02:34:22;100654.44;;;3.19;91.76
16355;BME280;8287;51.644;8.494;2024-03-08T02:36:49;100647.91;;;3.21;92.01
16355;BME280;8287;51.644;8.494;2024-03-08T02:39:16;100656.59;;;3.27;91.50
16355;BME280;8287;51.644;8.494;2024-03-08T02:41:45;100657.66;;;3.31;91.22
16355;BME280;8287;51.644;8.494;2024-03-08T02:44:11;100660.28;;;3.31;91.58
16355;BME280;8287;51.644;8.494;2024-03-08T02:46:38;100651.44;;;3.37;90.66
16355;BME280;8287;51.644;8.494;2024-03-08T02:49:04;100646.22;;;3.37;90.73
16355;BME280;8287;51.644;8.494;2024-03-08T02:51:33;100645.75;;;3.40;90.54
16355;BME280;8287;51.644;8.494;2024-03-08T02:54:00;100644.88;;;3.34;89.98
16355;BME280;8287;51.644;8.494;2024-03-08T02:56:28;100639.94;;;3.38;90.35
16355;BME280;8287;51.644;8.494;2024-03-08T02:58:55;100644.78;;;3.51;91.11
16355;BME280;8287;51.644;8.494;2024-03-08T03:01:22;100640.56;;;3.50;90.63
16355;BME280;8287;51.644;8.494;2024-03-08T03:03:48;100637.22;;;3.54;90.14
16355;BME280;8287;51.644;8.494;2024-03-08T03:06:15;100629.06;;;3.51;90.13
16355;BME280;8287;51.644;8.494;2024-03-08T03:08:41;100635.06;;;3.51;90.23
16355;BME280;8287;51.644;8.494;2024-03-08T03:11:11;100623.78;;;3.46;89.79
16355;BME280;8287;51.644;8.494;2024-03-08T03:13:40;100625.81;;;3.39;89.77
16355;BME280;8287;51.644;8.494;2024-03-08T03:16:07;100626.00;;;3.27;90.02
16355;BME280;8287;51.644;8.494;2024-03-08T03:18:35;100629.63;;;3.26;90.69
16355;BME280;8287;51.644;8.494;2024-03-08T03:21:02;100622.56;;;3.27;90.59
16355;BME280;8287;51.644;8.494;2024-03-08T03:23:32;100620.47;;;3.24;91.12
16355;BME280;8287;51.644;8.494;2024-03-08T03:26:00;100627.50;;;3.23;90.65
16355;BME280;8287;51.644;8.494;2024-03-08T03:28:27;100621.97;;;3.20;90.87
16355;BME280;8287;51.644;8.494;2024-03-08T03:30:55;100618.19;;;3.06;91.09
16355;BME280;8287;51.644;8.494;2024-03-08T03:33:24;100620.81;;;3.06;92.03
16355;BME280;8287;51.644;8.494;2024-03-08T03:35:50;100615.75;;;3.00;92.21
16355;BME280;8287;51.644;8.494;2024-03-08T03:38:17;100619.41;;;2.99;92.06
16355;BME280;8287;51.644;8.494;2024-03-08T03:40:45;100612.41;;;3.04;92.30
16355;BME280;8287;51.644;8.494;2024-03-08T03:43:13;100613.41;;;2.98;92.26
16355;BME280;8287;51.644;8.494;2024-03-08T03:45:40;100610.00;;;2.98;92.40
16355;BME280;8287;51.644;8.494;2024-03-08T03:48:08;100605.44;;;2.88;92.54
16355;BME280;8287;51.644;8.494;2024-03-08T03:50:35;100594.94;;;2.83;92.59
16355;BME280;8287;51.644;8.494;2024-03-08T03:53:02;100594.88;;;2.78;93.06
16355;BME280;8287;51.644;8.494;2024-03-08T03:55:29;100599.56;;;2.76;93.04
16355;BME280;8287;51.644;8.494;2024-03-08T03:57:55;100599.47;;;2.66;93.33
16355;BME280;8287;51.644;8.494;2024-03-08T04:00:24;100594.53;;;2.70;93.41
16355;BME280;8287;51.644;8.494;2024-03-08T04:02:52;100596.31;;;2.64;93.53
16355;BME280;8287;51.644;8.494;2024-03-08T04:05:20;100590.03;;;2.65;93.66
16355;BME280;8287;51.644;8.494;2024-03-08T04:07:46;100589.84;;;2.72;92.99
16355;BME280;8287;51.644;8.494;2024-03-08T04:10:13;100582.22;;;2.70;93.29
16355;BME280;8287;51.644;8.494;2024-03-08T04:12:40;100584.25;;;2.63;93.44
16355;BME280;8287;51.644;8.494;2024-03-08T04:15:07;100582.66;;;2.62;93.78
16355;BME280;8287;51.644;8.494;2024-03-08T04:17:36;100591.03;;;2.59;93.73
16355;BME280;8287;51.644;8.494;2024-03-08T04:20:03;100579.72;;;2.54;93.86
16355;BME280;8287;51.644;8.494;2024-03-08T04:22:36;100580.03;;;2.57;94.20
16355;BME280;8287;51.644;8.494;2024-03-08T04:25:03;100578.91;;;2.53;94.44
16355;BME280;8287;51.644;8.494;2024-03-08T04:27:29;100567.19;;;2.56;94.20
16355;BME280;8287;51.644;8.494;2024-03-08T04:29:57;100572.72;;;2.59;93.72
16355;BME280;8287;51.644;8.494;2024-03-08T04:32:24;100565.69;;;2.65;94.39
16355;BME280;8287;51.644;8.494;2024-03-08T04:34:51;100571.84;;;2.75;93.74
16355;BME280;8287;51.644;8.494;2024-03-08T04:37:17;100568.78;;;2.83;93.38
16355;BME280;8287;51.644;8.494;2024-03-08T04:39:48;100559.34;;;2.82;93.25
16355;BME280;8287;51.644;8.494;2024-03-08T04:42:15;100559.78;;;2.74;93.78
16355;BME280;8287;51.644;8.494;2024-03-08T04:44:43;100554.81;;;2.73;93.58
16355;BME280;8287;51.644;8.494;2024-03-08T04:47:09;100556.38;;;2.74;93.84
16355;BME280;8287;51.644;8.494;2024-03-08T04:49:36;100549.88;;;2.76;93.77
16355;BME280;8287;51.644;8.494;2024-03-08T04:52:03;100546.81;;;2.84;93.21
16355;BME280;8287;51.644;8.494;2024-03-08T04:54:29;100545.56;;;2.92;93.52
16355;BME280;8287;51.644;8.494;2024-03-08T04:56:57;100549.28;;;3.01;92.97
16355;BME280;8287;51.644;8.494;2024-03-08T04:59:25;100540.41;;;3.02;92.58
16355;BME280;8287;51.644;8.494;2024-03-08T05:01:52;100550.31;;;2.95;92.38
16355;BME280;8287;51.644;8.494;2024-03-08T05:04:18;100545.41;;;3.03;92.56
16355;BME280;8287;51.644;8.494;2024-03-08T05:06:45;100551.38;;;2.99;92.37
16355;BME280;8287;51.644;8.494;2024-03-08T05:09:11;100546.28;;;2.82;92.04
16355;BME280;8287;51.644;8.494;2024-03-08T05:11:40;100544.47;;;2.61;93.08
16355;BME280;8287;51.644;8.494;2024-03-08T05:14:08;100541.22;;;2.49;93.96
16355;BME280;8287;51.644;8.494;2024-03-08T05:16:35;100544.75;;;2.38;94.33
16355;BME280;8287;51.644;8.494;2024-03-08T05:19:01;100531.44;;;2.40;95.18
16355;BME280;8287;51.644;8.494;2024-03-08T05:21:28;100540.53;;;2.32;95.21
16355;BME280;8287;51.644;8.494;2024-03-08T05:23:55;100537.84;;;2.27;95.32
16355;BME280;8287;51.644;8.494;2024-03-08T05:26:21;100529.97;;;2.22;95.87
16355;BME280;8287;51.644;8.494;2024-03-08T05:28:48;100538.38;;;2.29;96.08
16355;BME280;8287;51.644;8.494;2024-03-08T05:31:19;100532.81;;;2.21;95.92
16355;BME280;8287;51.644;8.494;2024-03-08T05:33:47;100534.38;;;2.22;95.90
16355;BME280;8287;51.644;8.494;2024-03-08T05:36:14;100528.66;;;2.25;95.94
16355;BME280;8287;51.644;8.494;2024-03-08T05:38:41;100530.63;;;2.13;95.84
16355;BME280;8287;51.644;8.494;2024-03-08T05:41:08;100534.44;;;2.05;96.98
16355;BME280;8287;51.644;8.494;2024-03-08T05:43:35;100536.88;;;1.90;97.54
16355;BME280;8287;51.644;8.494;2024-03-08T05:46:02;100529.28;;;1.89;97.80
16355;BME280;8287;51.644;8.494;2024-03-08T05:48:31;100531.88;;;1.89;98.47
16355;BME280;8287;51.644;8.494;2024-03-08T05:50:58;100538.47;;;1.91;98.44
16355;BME280;8287;51.644;8.494;2024-03-08T05:53:24;100530.66;;;1.96;98.02
16355;BME280;8287;51.644;8.494;2024-03-08T05:55:51;100538.75;;;1.95;98.15
16355;BME280;8287;51.644;8.494;2024-03-08T05:58:19;100535.13;;;1.96;98.17
16355;BME280;8287;51.644;8.494;2024-03-08T06:00:45;100537.00;;;2.00;98.21
16355;BME280;8287;51.644;8.494;2024-03-08T06:03:12;100540.34;;;1.96;98.22
16355;BME280;8287;51.644;8.494;2024-03-08T06:05:40;100524.97;;;1.99;98.27
16355;BME280;8287;51.644;8.494;2024-03-08T06:08:07;100527.28;;;1.96;98.54
16355;BME280;8287;51.644;8.494;2024-03-08T06:10:34;100528.63;;;1.98;98.15
16355;BME280;8287;51.644;8.494;2024-03-08T06:13:01;100533.69;;;1.88;98.49
16355;BME280;8287;51.644;8.494;2024-03-08T06:15:27;100525.41;;;1.91;98.59
16355;BME280;8287;51.644;8.494;2024-03-08T06:17:54;100529.09;;;1.95;98.38
16355;BME280;8287;51.644;8.494;2024-03-08T06:20:20;100532.00;;;1.99;98.48
16355;BME280;8287;51.644;8.494;2024-03-08T06:22:52;100533.34;;;2.01;98.06
16355;BME280;8287;51.644;8.494;2024-03-08T06:25:20;100527.09;;;2.02;98.13
16355;BME280;8287;51.644;8.494;2024-03-08T06:27:46;100524.72;;;2.01;97.86
16355;BME280;8287;51.644;8.494;2024-03-08T06:30:13;100529.69;;;2.02;98.66
16355;BME280;8287;51.644;8.494;2024-03-08T06:32:41;100525.44;;;2.39;98.37
16355;BME280;8287;51.644;8.494;2024-03-08T06:35:08;100522.78;;;3.60;93.80
16355;BME280;8287;51.644;8.494;2024-03-08T06:37:36;100523.28;;;3.57;90.27
16355;BME280;8287;51.644;8.494;2024-03-08T06:40:04;100521.69;;;2.83;92.41
16355;BME280;8287;51.644;8.494;2024-03-08T06:42:33;100511.63;;;2.44;94.68
16355;BME280;8287;51.644;8.494;2024-03-08T06:45:00;100520.97;;;2.40;95.92
16355;BME280;8287;51.644;8.494;2024-03-08T06:47:30;100517.59;;;2.39;96.50
16355;BME280;8287;51.644;8.494;2024-03-08T06:49:57;100522.75;;;2.34;96.59
16355;BME280;8287;51.644;8.494;2024-03-08T06:52:24;100517.56;;;2.92;95.94
16355;BME280;8287;51.644;8.494;2024-03-08T06:54:50;100522.59;;;3.35;93.51
16355;BME280;8287;51.644;8.494;2024-03-08T06:57:19;100513.34;;;3.64;92.15
16355;BME280;8287;51.644;8.494;2024-03-08T06:59:47;100511.56;;;3.69;89.52
16355;BME280;8287;51.644;8.494;2024-03-08T07:02:13;100509.63;;;3.55;89.69
16355;BME280;8287;51.644;8.494;2024-03-08T07:04:40;100509.34;;;3.51;90.20
16355;BME280;8287;51.644;8.494;2024-03-08T07:07:07;100506.53;;;3.63;90.79
16355;BME280;8287;51.644;8.494;2024-03-08T07:09:34;100504.97;;;3.62;90.38
16355;BME280;8287;51.644;8.494;2024-03-08T07:12:01;100512.22;;;3.50;90.10
16355;BME280;8287;51.644;8.494;2024-03-08T07:14:29;100516.38;;;3.46;90.81
16355;BME280;8287;51.644;8.494;2024-03-08T07:16:56;100517.91;;;3.37;91.58
16355;BME280;8287;51.644;8.494;2024-03-08T07:19:23;100508.69;;;3.29;91.67
16355;BME280;8287;51.644;8.494;2024-03-08T07:21:49;100508.00;;;3.44;92.47
16355;BME280;8287;51.644;8.494;2024-03-08T07:24:16;100511.94;;;3.46;92.17
16355;BME280;8287;51.644;8.494;2024-03-08T07:27:04;100504.38;;;3.55;92.23
16355;BME280;8287;51.644;8.494;2024-03-08T07:29:31;100506.53;;;3.63;91.95
16355;BME280;8287;51.644;8.494;2024-03-08T07:31:58;100497.41;;;3.70;91.92
16355;BME280;8287;51.644;8.494;2024-03-08T07:34:37;100500.28;;;3.69;91.61
16355;BME280;8287;51.644;8.494;2024-03-08T07:37:05;100493.47;;;3.68;92.11
16355;BME280;8287;51.644;8.494;2024-03-08T07:39:36;100491.69;;;3.83;91.86
16355;BME280;8287;51.644;8.494;2024-03-08T07:42:03;100489.59;;;3.85;91.10
16355;BME280;8287;51.644;8.494;2024-03-08T07:44:29;100487.53;;;3.92;90.54
16355;BME280;8287;51.644;8.494;2024-03-08T07:46:58;100481.25;;;3.93;90.59
16355;BME280;8287;51.644;8.494;2024-03-08T07:49:25;100484.19;;;4.02;90.57
16355;BME280;8287;51.644;8.494;2024-03-08T07:51:51;100478.97;;;4.12;90.52
16355;BME280;8287;51.644;8.494;2024-03-08T07:54:18;100484.50;;;4.25;89.51
16355;BME280;8287;51.644;8.494;2024-03-08T07:56:45;100479.56;;;4.39;89.26
16355;BME280;8287;51.644;8.494;2024-03-08T07:59:12;100476.44;;;4.62;88.83
16355;BME280;8287;51.644;8.494;2024-03-08T08:01:38;100474.63;;;4.92;87.94
16355;BME280;8287;51.644;8.494;2024-03-08T08:04:06;100473.31;;;4.95;86.70
16355;BME280;8287;51.644;8.494;2024-03-08T08:06:37;100472.78;;;4.98;85.75
16355;BME280;8287;51.644;8.494;2024-03-08T08:09:06;100483.25;;;5.43;85.24
16355;BME280;8287;51.644;8.494;2024-03-08T08:11:35;100485.81;;;5.63;84.82
16355;BME280;8287;51.644;8.494;2024-03-08T08:14:01;100473.44;;;5.68;83.84
16355;BME280;8287;51.644;8.494;2024-03-08T08:16:28;100471.84;;;5.87;81.80
16355;BME280;8287;51.644;8.494;2024-03-08T08:18:55;100470.47;;;5.90;80.63
16355;BME280;8287;51.644;8.494;2024-03-08T08:21:22;100458.91;;;5.96;81.57
16355;BME280;8287;51.644;8.494;2024-03-08T08:23:50;100468.28;;;6.12;80.79
16355;BME280;8287;51.644;8.494;2024-03-08T08:26:16;100455.00;;;6.37;81.13
16355;BME280;8287;51.644;8.494;2024-03-08T08:28:43;100458.28;;;6.52;80.64
16355;BME280;8287;51.644;8.494;2024-03-08T08:31:11;100447.97;;;6.94;79.98
16355;BME280;8287;51.644;8.494;2024-03-08T08:33:38;100451.28;;;6.76;78.32
16355;BME280;8287;51.644;8.494;2024-03-08T08:36:06;100449.13;;;6.83;78.95
16355;BME280;8287;51.644;8.494;2024-03-08T08:38:34;100442.47;;;6.90;77.26
16355;BME280;8287;51.644;8.494;2024-03-08T08:41:01;100439.94;;;7.09;79.09
16355;BME280;8287;51.644;8.494;2024-03-08T08:43:28;100436.59;;;6.98;76.58
16355;BME280;8287;51.644;8.494;2024-03-08T08:45:54;100439.09;;;6.51;77.48
16355;BME280;8287;51.644;8.494;2024-03-08T08:48:21;100440.72;;;6.81;76.70
16355;BME280;8287;51.644;8.494;2024-03-08T08:50:50;100433.91;;;6.75;78.39
16355;BME280;8287;51.644;8.494;2024-03-08T08:53:17;100431.03;;;7.05;77.92
16355;BME280;8287;51.644;8.494;2024-03-08T08:55:45;100420.88;;;6.88;76.45
16355;BME280;8287;51.644;8.494;2024-03-08T08:58:12;100422.78;;;7.11;76.53
16355;BME280;8287;51.644;8.494;2024-03-08T09:00:39;100414.00;;;7.21;76.43
16355;BME280;8287;51.644;8.494;2024-03-08T09:03:05;100419.13;;;7.07;75.39
16355;BME280;8287;51.644;8.494;2024-03-08T09:05:33;100409.84;;;7.38;76.70
16355;BME280;8287;51.644;8.494;2024-03-08T09:08:00;100421.31;;;7.00;75.35
16355;BME280;8287;51.644;8.494;2024-03-08T09:10:28;100399.56;;;6.90;76.37
16355;BME280;8287;51.644;8.494;2024-03-08T09:12:56;100398.81;;;6.84;77.35
16355;BME280;8287;51.644;8.494;2024-03-08T09:15:22;100398.28;;;6.82;76.29
16355;BME280;8287;51.644;8.494;2024-03-08T09:17:50;100398.19;;;7.21;76.71
16355;BME280;8287;51.644;8.494;2024-03-08T09:20:17;100401.00;;;7.01;76.01
16355;BME280;8287;51.644;8.494;2024-03-08T09:22:46;100396.94;;;7.13;75.73
16355;BME280;8287;51.644;8.494;2024-03-08T09:25:12;100385.41;;;7.33;76.40
16355;BME280;8287;51.644;8.494;2024-03-08T09:27:39;100388.09;;;7.51;75.62
16355;BME280;8287;51.644;8.494;2024-03-08T09:30:08;100378.56;;;7.32;74.93
16355;BME280;8287;51.644;8.494;2024-03-08T09:32:38;100382.88;;;7.46;75.41
16355;BME280;8287;51.644;8.494;2024-03-08T09:35:06;100369.41;;;7.48;74.28
16355;BME280;8287;51.644;8.494;2024-03-08T09:37:32;100371.09;;;7.39;74.16
16355;BME280;8287;51.644;8.494;2024-03-08T09:40:00;100368.69;;;7.42;75.10
16355;BME280;8287;51.644;8.494;2024-03-08T09:42:29;100368.16;;;7.40;74.73
16355;BME280;8287;51.644;8.494;2024-03-08T09:44:57;100356.00;;;7.44;73.43
16355;BME280;8287;51.644;8.494;2024-03-08T09:47:25;100357.84;;;7.67;73.88
16355;BME280;8287;51.644;8.494;2024-03-08T09:49:59;100354.75;;;7.79;73.83
16355;BME280;8287;51.644;8.494;2024-03-08T09:52:26;100341.78;;;7.82;72.31
16355;BME280;8287;51.644;8.494;2024-03-08T09:54:54;100347.00;;;7.87;72.37
16355;BME280;8287;51.644;8.494;2024-03-08T09:57:21;100338.22;;;7.73;72.95
16355;BME280;8287;51.644;8.494;2024-03-08T09:59:48;100330.69;;;7.85;74.09
16355;BME280;8287;51.644;8.494;2024-03-08T10:02:16;100330.81;;;7.94;72.25
16355;BME280;8287;51.644;8.494;2024-03-08T10:04:44;100332.09;;;7.96;72.50
16355;BME280;8287;51.644;8.494;2024-03-08T10:07:12;100328.66;;;7.96;72.98
16355;BME280;8287;51.644;8.494;2024-03-08T10:09:39;100323.53;;;8.04;72.69
16355;BME280;8287;51.644;8.494;2024-03-08T10:12:07;100325.41;;;7.85;72.16
16355;BME280;8287;51.644;8.494;2024-03-08T10:14:38;100318.56;;;7.84;73.14
16355;BME280;8287;51.644;8.494;2024-03-08T10:17:05;100308.44;;;8.42;73.00
16355;BME280;8287;51.644;8.494;2024-03-08T10:19:32;100313.88;;;8.32;71.74
16355;BME280;8287;51.644;8.494;2024-03-08T10:22:01;100304.66;;;8.61;71.41
16355;BME280;8287;51.644;8.494;2024-03-08T10:24:29;100301.34;;;8.56;69.72
16355;BME280;8287;51.644;8.494;2024-03-08T10:26:59;100296.41;;;8.49;70.03
16355;BME280;8287;51.644;8.494;2024-03-08T10:29:27;100298.50;;;8.66;69.80
16355;BME280;8287;51.644;8.494;2024-03-08T10:31:55;100290.13;;;8.77;69.73
16355;BME280;8287;51.644;8.494;2024-03-08T10:34:22;100289.72;;;8.84;68.21
16355;BME280;8287;51.644;8.494;2024-03-08T10:36:51;100287.56;;;8.99;69.78
16355;BME280;8287;51.644;8.494;2024-03-08T10:39:22;100280.63;;;8.90;69.57
16355;BME280;8287;51.644;8.494;2024-03-08T10:41:56;100278.19;;;8.93;68.92
16355;BME280;8287;51.644;8.494;2024-03-08T10:44:44;100273.63;;;9.21;68.81
16355;BME280;8287;51.644;8.494;2024-03-08T10:47:18;100263.31;;;9.46;69.25
16355;BME280;8287;51.644;8.494;2024-03-08T10:49:51;100269.13;;;9.70;67.00
16355;BME280;8287;51.644;8.494;2024-03-08T10:52:19;100265.22;;;9.68;66.05
16355;BME280;8287;51.644;8.494;2024-03-08T10:54:47;100266.78;;;9.68;65.92
16355;BME280;8287;51.644;8.494;2024-03-08T10:57:16;100260.81;;;9.63;66.11
16355;BME280;8287;51.644;8.494;2024-03-08T10:59:43;100253.81;;;9.45;65.37
16355;BME280;8287;51.644;8.494;2024-03-08T11:02:11;100255.56;;;9.85;65.93
16355;BME280;8287;51.644;8.494;2024-03-08T11:04:38;100253.63;;;9.99;65.79
16355;BME280;8287;51.644;8.494;2024-03-08T11:07:05;100251.41;;;9.92;64.67
16355;BME280;8287;51.644;8.494;2024-03-08T11:09:35;100242.94;;;10.04;66.08
16355;BME280;8287;51.644;8.494;2024-03-08T11:12:22;100244.84;;;9.90;63.21
16355;BME280;8287;51.644;8.494;2024-03-08T11:14:52;100237.94;;;10.02;64.20
16355;BME280;8287;51.644;8.494;2024-03-08T11:17:39;100232.81;;;9.84;63.41
16355;BME280;8287;51.644;8.494;2024-03-08T11:20:09;100220.88;;;10.39;63.83
16355;BME280;8287;51.644;8.494;2024-03-08T11:22:41;100210.22;;;10.61;62.63
16355;BME280;8287;51.644;8.494;2024-03-08T11:25:31;100204.69;;;10.40;63.11
16355;BME280;8287;51.644;8.494;2024-03-08T11:28:13;100209.09;;;10.01;61.94
16355;BME280;8287;51.644;8.494;2024-03-08T11:30:47;100204.28;;;10.25;63.21
16355;BME280;8287;51.644;8.494;2024-03-08T11:33:35;100195.66;;;10.41;61.97
16355;BME280;8287;51.644;8.494;2024-03-08T11:36:02;100194.31;;;10.61;60.77
16355;BME280;8287;51.644;8.494;2024-03-08T11:38:31;100177.94;;;10.59;60.97
16355;BME280;8287;51.644;8.494;2024-03-08T11:40:58;100173.75;;;10.75;61.97
16355;BME280;8287;51.644;8.494;2024-03-08T11:43:26;100176.16;;;11.19;59.03
16355;BME280;8287;51.644;8.494;2024-03-08T11:46:07;100166.34;;;11.36;59.90
16355;BME280;8287;51.644;8.494;2024-03-08T11:48:34;100165.88;;;11.26;59.76
16355;BME280;8287;51.644;8.494;2024-03-08T11:51:01;100160.25;;;11.19;58.83
16355;BME280;8287;51.644;8.494;2024-03-08T11:53:29;100161.47;;;10.79;57.86
16355;BME280;8287;51.644;8.494;2024-03-08T11:56:05;100151.63;;;10.71;57.41
16355;BME280;8287;51.644;8.494;2024-03-08T11:58:33;100152.41;;;10.63;59.10
16355;BME280;8287;51.644;8.494;2024-03-08T12:01:03;100142.25;;;10.65;57.58
16355;BME280;8287;51.644;8.494;2024-03-08T12:03:30;100134.28;;;10.48;58.26
16355;BME280;8287;51.644;8.494;2024-03-08T12:05:59;100137.38;;;10.41;60.63
16355;BME280;8287;51.644;8.494;2024-03-08T12:08:26;100141.28;;;10.44;58.39
16355;BME280;8287;51.644;8.494;2024-03-08T12:10:53;100133.69;;;10.59;57.58
16355;BME280;8287;51.644;8.494;2024-03-08T12:13:25;100130.91;;;10.73;57.95
16355;BME280;8287;51.644;8.494;2024-03-08T12:15:56;100122.94;;;10.73;56.68
16355;BME280;8287;51.644;8.494;2024-03-08T12:18:24;100131.22;;;10.80;58.48
16355;BME280;8287;51.644;8.494;2024-03-08T12:20:51;100125.94;;;10.97;57.21
16355;BME280;8287;51.644;8.494;2024-03-08T12:23:18;100115.66;;;11.04;56.93
16355;BME280;8287;51.644;8.494;2024-03-08T12:25:44;100117.22;;;11.22;55.99
16355;BME280;8287;51.644;8.494;2024-03-08T12:28:13;100119.06;;;11.21;58.50
16355;BME280;8287;51.644;8.494;2024-03-08T12:30:46;100105.66;;;11.35;59.33
16355;BME280;8287;51.644;8.494;2024-03-08T12:33:14;100103.50;;;11.03;57.56
16355;BME280;8287;51.644;8.494;2024-03-08T12:35:50;100102.19;;;11.43;59.67
16355;BME280;8287;51.644;8.494;2024-03-08T12:38:19;100096.91;;;11.43;60.05
16355;BME280;8287;51.644;8.494;2024-03-08T12:40:50;100089.72;;;11.35;60.47
16355;BME280;8287;51.644;8.494;2024-03-08T12:43:17;100081.31;;;11.33;56.41
16355;BME280;8287;51.644;8.494;2024-03-08T12:45:44;100077.38;;;11.56;56.33
16355;BME280;8287;51.644;8.494;2024-03-08T12:48:13;100080.78;;;11.73;58.69
16355;BME280;8287;51.644;8.494;2024-03-08T12:50:42;100068.53;;;11.98;58.96
16355;BME280;8287;51.644;8.494;2024-03-08T12:53:10;100068.28;;;11.74;57.36
16355;BME280;8287;51.644;8.494;2024-03-08T12:55:37;100064.41;;;12.09;57.34
16355;BME280;8287;51.644;8.494;2024-03-08T12:58:04;100058.06;;;11.93;58.16
16355;BME280;8287;51.644;8.494;2024-03-08T13:00:32;100062.47;;;11.89;56.06
16355;BME280;8287;51.644;8.494;2024-03-08T13:03:01;100045.66;;;11.68;56.98
16355;BME280;8287;51.644;8.494;2024-03-08T13:05:28;100042.09;;;11.64;56.27
16355;BME280;8287;51.644;8.494;2024-03-08T13:07:56;100037.91;;;11.63;57.58
16355;BME280;8287;51.644;8.494;2024-03-08T13:10:23;100045.13;;;11.37;56.29
16355;BME280;8287;51.644;8.494;2024-03-08T13:12:50;100026.38;;;11.42;57.40
16355;BME280;8287;51.644;8.494;2024-03-08T13:15:18;100033.22;;;11.60;57.12